Glenshire Elementary, Truckee, California Weather observations

Data are for observation ending at time listed.
 Day   Time    Ave.   Ave.  Ave.  Vector   Max.   Stn.    Total    Solar   Ave.   Snow 
  of    of     Air    Rel.  Wind   Wind    Wind   Baro.  Precip.   Rad.    Soil   Depth
Year   Day     Temp.  Hum.  Speed  Dir.    Gust   Pres.                    Temp.       
2015   (PST)    F      %     mph   deg.    mph     mb.     in.     W/m2     F      in. 
---------------------------------------------------------------------------------------  
  90   16:50   44.9    47    4.8    65     15.5   820.0    0.00      51    44.7   999.0
  90   17:00   44.2    48    5.3    69     15.5   819.8    0.00      33    44.8   999.0
  90   17:10   43.9    49    4.4    60     14.7   819.7    0.00      34    44.8   999.0
  90   17:20   43.6    48    6.0    72     20.5   819.6    0.00      49    44.8   999.0
  90   17:30   43.3    47    5.4    73     18.9   819.6    0.00      26    44.8   999.0
  90   17:40   42.7    49    5.0    74     15.5   819.8    0.00       8    44.8   999.0
  90   17:50   42.2    51    4.9    79     11.3   820.0    0.00       1    44.8   999.0
  90   18:00   41.9    51    3.3    59      7.1   820.3    0.00       0    44.8   999.0
  90   18:10   41.8    52    1.6    69      7.1   820.5    0.00       0    44.8   999.0
  90   18:20   41.1    53    1.2    71      4.6   820.6    0.00       0    44.8   999.0
  90   18:30   40.4    55    1.4    72      6.3   820.6    0.00       0    44.8   999.0
  90   18:40   39.8    56    1.5    72      6.3   820.5    0.00       0    44.8   999.0
  90   18:50   39.7    56    1.1    78      4.6   820.7    0.00       0    44.8   999.0
  90   19:00   39.5    56    1.8    72      8.0   820.8    0.00       0    44.8   999.0
  90   19:10   38.9    58    0.7    75      4.6   820.9    0.00       0    44.8   999.0
  90   19:20   38.5    59    0.6    46      2.9   821.0    0.00       0    44.8   999.0
  90   19:30   38.1    61    0.5    69      2.9   821.2    0.00       0    44.8   999.0
  90   19:40   37.4    62    0.6    66      4.6   821.2    0.00       0    44.8   999.0
  90   19:50   36.6    63    0.7    75      2.9   821.3    0.00       0    44.8   999.0
  90   20:00   36.9    62    1.1    87      4.6   821.5    0.00       0    44.8   999.0
  90   20:10   36.5    62    0.5    19      2.9   821.5    0.00       0    44.8   999.0
  90   20:20   35.9    63    0.5   311      2.1   821.6    0.00       0    44.8   999.0
  90   20:30   35.5    64    0.5   300      2.1   821.8    0.00       0    44.8   999.0
  90   20:40   34.9    65    0.8   255      3.8   821.8    0.00       0    44.8   999.0
  90   20:50   34.3    66    0.4   202      1.2   821.9    0.00       0    44.8   999.0
  90   21:00   34.0    65    0.5   209      2.1   821.9    0.00       0    44.8   999.0
  90   21:10   33.4    66    0.5   283      2.1   821.9    0.00       0    44.8   999.0
  90   21:20   32.1    69    0.4   294      0.4   821.9    0.00       0    44.8   999.0
  90   21:30   31.4    71    0.5   264      2.1   821.9    0.00       0    44.8   999.0
  90   21:40   30.9    72    0.4   255      0.4   821.9    0.00       0    44.8   999.0
  90   21:50   29.8    75    0.4   240      0.4   822.0    0.00       0    44.8   999.0
  90   22:00   29.1    77    0.4    75      0.4   822.2    0.00       0    44.8   999.0
  90   22:10   29.1    76    0.4    75      0.4   822.2    0.00       0    44.9   999.0
  90   22:20   28.7    76    0.4    75      0.4   822.2    0.00       0    44.9   999.0
  90   22:30   28.2    78    0.4    75      0.4   822.3    0.00       0    44.8   999.0
  90   22:40   28.1    77    0.4    75      0.4   822.3    0.00       0    44.8   999.0
  90   22:50   27.7    78    0.4    75      0.4   822.4    0.00       0    44.8   999.0
  90   23:00   27.1    79    0.4    75      0.4   822.4    0.00       0    44.9   999.0
  90   23:10   26.4    80    0.4    75      0.4   822.3    0.00       0    44.9   999.0
  90   23:20   25.8    81    0.4    75      0.4   822.3    0.00       0    44.9   999.0
  90   23:30   25.8    82    0.4    75      0.4   822.3    0.00       0    44.9   999.0
  90   23:40   25.8    83    0.4    80      0.4   822.3    0.00       0    44.8   999.0
  90   23:50   25.7    83    0.6   202      2.9   822.4    0.00       0    44.8   999.0
  91    0:00   25.8    82    0.4   280      0.4   822.5    0.00       0    44.9   999.0
  91    0:10   25.6    83    0.4   289      0.4   822.6    0.00       0    44.9   999.0
  91    0:20   25.4    82    0.5   298      2.1   822.6    0.00       0    44.9   999.0
  91    0:30   25.3    81    0.5   289      2.1   822.5    0.00       0    44.9   999.0
  91    0:40   25.3    81    0.4   243      2.1   822.5    0.00       0    44.8   999.0
  91    0:50   24.9    81    0.4   210      0.4   822.5    0.00       0    44.8   999.0
  91    1:00   24.6    83    0.4    57      2.1   822.5    0.00       0    44.8   999.0
  91    1:10   24.5    83    0.4    44      0.4   822.4    0.00       0    44.8   999.0
  91    1:20   24.3    84    0.6    63      2.9   822.3    0.00       0    44.9   999.0
  91    1:30   24.0    85    0.4    82      0.4   822.2    0.00       0    44.8   999.0
  91    1:40   23.9    86    0.4    82      0.4   822.2    0.00       0    44.8   999.0
  91    1:50   23.8    86    0.4    82      0.4   822.0    0.00       0    44.9   999.0
  91    2:00   23.6    85    0.4    82      0.4   822.0    0.00       0    44.9   999.0
  91    2:10   23.3    86    0.4    82      0.4   822.0    0.00       0    44.8   999.0
  91    2:20   23.2    86    0.4    82      0.4   821.9    0.00       0    44.8   999.0
  91    2:30   23.1    86    0.4    81      0.4   821.7    0.00       0    44.9   999.0
  91    2:40   22.8    87    0.4    81      0.4   821.5    0.00       0    44.9   999.0
  91    2:50   22.8    87    0.4    81      0.4   821.5    0.00       0    44.9   999.0
  91    3:00   22.4    87    0.4    81      0.4   821.5    0.00       0    44.9   999.0
  91    3:10   22.1    87    0.4    81      0.4   821.4    0.00       0    44.9   999.0
  91    3:20   21.9    88    0.4    81      0.4   821.4    0.00       0    44.9   999.0
  91    3:30   22.0    88    0.4    81      0.4   821.3    0.00       0    44.9   999.0
  91    3:40   21.8    87    0.4    81      0.4   821.3    0.00       0    44.9   999.0
  91    3:50   21.6    87    0.6   203      2.1   821.2    0.00       0    44.9   999.0
  91    4:00   21.3    86    0.4   189      0.4   821.2    0.00       0    44.9   999.0
  91    4:10   21.0    87    0.4   189      0.4   821.2    0.00       0    44.9   999.0
  91    4:20   20.8    88    0.4   189      0.4   821.2    0.00       0    44.9   999.0
  91    4:30   20.5    89    0.4   189      0.4   821.2    0.00       0    44.9   999.0
  91    4:40   20.3    89    0.6   226      2.1   821.0    0.00       0    44.9   999.0
  91    4:50   20.2    88    0.4   228      0.4   820.9    0.00       0    44.9   999.0
  91    5:00   19.5    88    0.5   154      2.1   820.9    0.00       0    44.9   999.0
  91    5:10   18.9    88    0.4    79      0.4   820.9    0.00       0    44.9   999.0
  91    5:20   19.0    89    0.4    79      0.4   820.9    0.00       0    44.9   999.0
  91    5:30   19.1    90    0.4    79      0.4   820.9    0.00       0    44.9   999.0
  91    5:40   19.2    90    0.4    79      0.4   821.0    0.00       0    44.9   999.0
  91    5:50   18.8    89    0.4    79      0.4   821.1    0.00       0    44.9   999.0
  91    6:00   18.0    90    0.4    79      0.4   821.2    0.00       0    44.9   999.0
  91    6:10   18.5    90    0.4    79      0.4   821.2    0.00       0    44.9   999.0
  91    6:20   19.3    89    0.4    79      0.4   821.1    0.00      18    44.9   999.0
  91    6:30   20.8    87    0.4    79      0.4   821.2    0.00      55    44.9   999.0
  91    6:40   21.3    84    0.4    94      0.4   821.1    0.00      75    44.9   999.0
  91    6:50   23.2    83    0.4   250      0.4   821.0    0.00     134    44.9   999.0
  91    7:00   23.6    83    1.1    80      4.6   821.1    0.00     147    44.9   999.0
  91    7:10   23.0    83    2.1    74      3.8   821.1    0.00     165    45.0   999.0
  91    7:20   23.4    83    1.9    81      3.8   821.1    0.00     180    45.0   999.0
  91    7:30   24.7    81    0.5    91      2.1   821.0    0.00     270    45.0   999.0
  91    7:40   27.4    75    0.4    94      1.2   821.0    0.00     321    45.0   999.0
  91    7:50   30.0    69    0.6    78      2.9   821.0    0.00     364    45.0   999.0
  91    8:00   31.2    65    0.4     8      0.4   821.1    0.00     312    45.0   999.0
  91    8:10   32.2    61    1.2   184      4.6   821.0    0.00     284    45.0   999.0
  91    8:20   31.7    62    1.2   162      3.8   820.9    0.00     340    45.0   999.0
  91    8:30   32.3    63    1.6   169      3.8   820.9    0.00     392    45.0   999.0
  91    8:40   32.8    62    1.8   132      4.6   820.8    0.00     361    45.0   999.0
  91    8:50   33.3    60    2.1   116      4.6   820.8    0.00     416    44.9   999.0
  91    9:00   34.3    58    1.8   145      5.4   820.8    0.00     503    45.0   999.0
  91    9:10   35.7    54    2.4   191      7.1   820.8    0.00     554    45.0   999.0
  91    9:20   36.4    52    2.2   190      8.8   820.7    0.00     536    45.0   999.0
  91    9:30   37.1    49    2.9   221      7.1   820.6    0.00     530    45.0   999.0
  91    9:40   37.2    48    2.8   209      8.0   820.5    0.00     550    45.0   999.0
  91    9:50   38.7    46    2.8   183      7.1   820.4    0.00     494    45.0   999.0
  91   10:00   38.2    47    3.0   184      8.0   820.2    0.00     543    45.0   999.0
  91   10:10   40.2    44    2.4   136      6.3   820.1    0.00     558    45.0   999.0
  91   10:20   40.3    43    3.2   168      6.3   819.9    0.00     517    45.0   999.0
  91   10:30   40.4    41    2.8   185      7.1   819.8    0.00     522    45.0   999.0
  91   10:40   41.4    40    3.2   176      6.3   819.6    0.00     521    45.0   999.0
  91   10:50   42.1    38    3.1   192      7.1   819.5    0.00     495    45.0   999.0
  91   11:00   42.9    35    1.3   137      4.6   819.3    0.00     502    45.0   999.0
  91   11:10   43.8    33    2.7    84      7.1   819.2    0.00     562    45.0   999.0
  91   11:20   45.0    29    1.6   118      6.3   819.1    0.00     525    45.0   999.0
  91   11:30   45.7    29    2.9    81      8.0   818.9    0.00     529    45.0   999.0
  91   11:40   44.7    29    3.7    89      8.0   818.8    0.00     516    44.9   999.0
  91   11:50   45.4    28    3.2    78      8.0   818.7    0.00     483    45.0   999.0
  91   12:00   46.4    28    1.8   337      4.6   818.7    0.00     419    45.1   999.0
  91   12:10   46.6    27    2.5    92      9.6   818.6    0.00     447    45.1   999.0
  91   12:20   46.8    25    2.2    82      7.1   818.5    0.00     477    45.1   999.0
  91   12:30   46.9    24    3.0   142      8.0   818.3    0.00     544    45.0   999.0
  91   12:40   47.4    24    4.6   116     13.0   818.3    0.00     504    45.0   999.0
  91   12:50   48.2    20    4.4    92      8.8   818.2    0.00     523    45.0   999.0
  91   13:00   48.0    19    5.9    75     13.8   818.1    0.00     512    45.1   999.0
  91   13:10   48.0    19    5.5    77     11.3   818.0    0.00     541    45.0   999.0
  91   13:20   48.8    18    5.7    76     15.5   817.9    0.00     559    45.0   999.0
  91   13:30   48.8    17    4.2    75     12.1   817.8    0.00     522    45.1   999.0
  91   13:40   49.3    18    4.6    77     14.7   817.8    0.00     560    45.1   999.0
  91   13:50   49.1    17    4.4    72     11.3   817.8    0.00     526    45.1   999.0
  91   14:00   49.6    19    3.6    71      8.8   817.7    0.00     582    45.1   999.0
  91   14:10   50.3    18    4.0    67     11.3   817.6    0.00     606    45.1   999.0
  91   14:20   49.0    19    6.4    75     15.5   817.6    0.00     580    45.1   999.0
  91   14:30   47.6    20    6.7    75     14.7   817.5    0.00     478    45.1   999.0
  91   14:40   48.4    20    6.5    73     18.0   817.5    0.00     513    45.1   999.0
  91   14:50   48.1    20    5.2    73     13.8   817.4    0.00     447    45.1   999.0
  91   15:00   47.3    20    4.7    77     14.7   817.4    0.00     418    45.0   999.0
  91   15:10   47.7    20    7.2    76     15.5   817.3    0.00     544    45.1   999.0
  91   15:20   48.1    20    5.5    81     14.7   817.3    0.00     567    45.1   999.0
  91   15:30   48.4    20    6.4    84     15.5   817.3    0.00     550    45.0   999.0
  91   15:40   48.2    21    4.6    69     14.7   817.3    0.00     449    45.0   999.0
  91   15:50   49.3    21    2.8    74     10.5   817.3    0.00     487    45.1   999.0
  91   16:00   50.0    20    2.8    65     13.0   817.3    0.00     458    45.1   999.0
  91   16:10   49.5    21    3.9    73     15.5   817.3    0.00     406    45.1   999.0
  91   16:20   48.4    23    3.2    77     11.3   817.3    0.00     384    45.1   999.0
  91   16:30   48.1    24    4.6    79     13.0   817.3    0.00     326    45.1   999.0
  91   16:40   47.3    26    4.0    73     10.5   817.3    0.00     315    45.0   999.0

Return to Glenshire Elementary graphs page.


Western Regional Climate Center,wrcc@dri.edu